createdAt,value
2019-05-21T00:01:03.346Z,4.33
2019-05-21T00:03:31.849Z,5.33
2019-05-21T00:06:00.366Z,5.10
2019-05-21T00:08:28.864Z,4.20
2019-05-21T00:10:57.367Z,4.47
2019-05-21T00:13:25.873Z,6.47
2019-05-21T00:15:54.459Z,4.27
2019-05-21T00:18:23.319Z,3.70
2019-05-21T00:20:51.799Z,4.40
2019-05-21T00:23:20.292Z,4.20
2019-05-21T00:25:48.765Z,5.70
2019-05-21T00:28:41.115Z,3.97
2019-05-21T00:31:46.065Z,4.57
2019-05-21T00:34:50.947Z,4.83
2019-05-21T00:37:55.911Z,6.20
2019-05-21T00:41:00.802Z,5.60
2019-05-21T00:43:40.268Z,4.70
2019-05-21T00:46:08.764Z,4.47
2019-05-21T00:48:37.239Z,4.57
2019-05-21T00:51:05.736Z,5.23
2019-05-21T00:53:34.310Z,6.67
2019-05-21T00:56:02.843Z,6.77
2019-05-21T00:58:31.380Z,5.23
2019-05-21T01:00:59.865Z,4.77
2019-05-21T01:03:31.741Z,5.43
2019-05-21T01:06:00.297Z,5.43
2019-05-21T01:08:28.762Z,6.67
2019-05-21T01:10:57.271Z,4.80
2019-05-21T01:13:25.737Z,5.97
2019-05-21T01:15:54.496Z,5.60
2019-05-21T01:18:22.984Z,6.07
2019-05-21T01:20:51.443Z,5.23
2019-05-21T01:23:19.912Z,5.57
2019-05-21T01:25:48.416Z,5.23
2019-05-21T01:28:16.917Z,7.43
2019-05-21T01:30:45.387Z,6.30
2019-05-21T01:33:13.845Z,7.03
2019-05-21T01:35:42.664Z,8.47
2019-05-21T01:38:11.133Z,5.57
2019-05-21T01:40:39.626Z,6.77
2019-05-21T01:43:08.095Z,8.43
2019-05-21T01:45:36.559Z,6.77
2019-05-21T01:48:05.012Z,9.40
2019-05-21T01:50:33.742Z,6.07
2019-05-21T01:53:03.084Z,5.90
2019-05-21T01:55:31.707Z,7.70
2019-05-21T01:58:00.187Z,6.97
2019-05-21T02:00:28.704Z,7.67
2019-05-21T02:02:57.187Z,6.10
2019-05-21T02:05:33.059Z,7.27
2019-05-21T02:07:56.189Z,7.27
2019-05-21T02:10:24.670Z,7.63
2019-05-21T02:12:53.175Z,5.60
2019-05-21T02:15:21.933Z,8.27
2019-05-21T02:17:50.433Z,7.90
2019-05-21T02:20:18.925Z,7.37
2019-05-21T02:22:47.394Z,7.33
2019-05-21T02:25:15.870Z,6.93
2019-05-21T02:27:44.676Z,6.27
2019-05-21T02:30:13.534Z,8.03
2019-05-21T02:32:41.997Z,7.60
2019-05-21T02:35:10.698Z,8.60
2019-05-21T02:37:39.161Z,9.43
2019-05-21T02:40:07.631Z,6.93
2019-05-21T02:42:36.470Z,7.53
2019-05-21T02:45:05.233Z,7.27
2019-05-21T02:47:33.698Z,7.07
2019-05-21T02:50:02.207Z,6.90
2019-05-21T02:52:30.700Z,7.83
2019-05-21T02:54:59.222Z,7.97
2019-05-21T02:57:38.750Z,8.07
2019-05-21T03:00:09.002Z,6.10
2019-05-21T03:02:39.482Z,7.60
2019-05-21T03:05:07.953Z,8.67
2019-05-21T03:07:36.447Z,7.53
2019-05-21T03:10:05.200Z,7.43
2019-05-21T03:12:33.998Z,8.23
2019-05-21T03:15:02.782Z,11.10
2019-05-21T03:17:31.278Z,10.87
2019-05-21T03:20:00.050Z,11.47
2019-05-21T03:22:28.549Z,10.80
2019-05-21T03:25:01.840Z,7.43
2019-05-21T03:27:27.245Z,13.43
2019-05-21T03:29:55.710Z,9.60
2019-05-21T03:32:24.193Z,9.30
2019-05-21T03:34:52.658Z,9.80
2019-05-21T03:37:21.128Z,9.70
2019-05-21T03:39:49.594Z,10.60
2019-05-21T03:42:18.078Z,10.43
2019-05-21T03:44:59.080Z,7.70
2019-05-21T03:47:16.781Z,8.57
2019-05-21T03:49:45.261Z,10.03
2019-05-21T03:52:14.086Z,9.97
2019-05-21T03:54:42.893Z,9.87
2019-05-21T03:57:11.381Z,9.73
2019-05-21T03:59:39.935Z,10.17
2019-05-21T04:02:08.500Z,13.70
2019-05-21T04:04:36.970Z,8.57
2019-05-21T04:07:05.424Z,11.03
2019-05-21T04:09:33.922Z,14.47
2019-05-21T04:12:02.397Z,12.23
2019-05-21T04:14:33.601Z,12.77
2019-05-21T04:17:23.955Z,14.27
2019-05-21T04:19:52.599Z,12.27
2019-05-21T04:22:21.079Z,12.63
2019-05-21T04:24:49.565Z,11.33
2019-05-21T04:27:18.064Z,11.20
2019-05-21T04:29:46.561Z,12.80
2019-05-21T04:32:15.018Z,13.47
2019-05-21T04:34:43.498Z,16.47
2019-05-21T04:37:13.358Z,14.60
2019-05-21T04:39:42.678Z,14.07
2019-05-21T04:42:11.159Z,15.20
2019-05-21T04:44:39.650Z,11.43
2019-05-21T04:47:08.423Z,14.53
2019-05-21T04:49:36.905Z,15.53
2019-05-21T04:52:05.700Z,15.10
2019-05-21T04:54:34.182Z,16.07
2019-05-21T04:57:02.678Z,15.80
2019-05-21T04:59:31.290Z,15.00
2019-05-21T05:01:59.882Z,11.40
2019-05-21T05:04:28.360Z,16.57
2019-05-21T05:06:56.840Z,12.07
2019-05-21T05:09:25.330Z,17.73
2019-05-21T05:11:53.819Z,14.37
2019-05-21T05:14:22.297Z,15.83
2019-05-21T05:16:50.801Z,11.47
2019-05-21T05:19:19.688Z,16.83
2019-05-21T05:21:48.496Z,20.07
2019-05-21T05:24:16.973Z,15.87
2019-05-21T05:26:45.470Z,15.47
2019-05-21T05:29:14.223Z,16.87
2019-05-21T05:31:42.688Z,16.10
2019-05-21T05:34:11.522Z,14.87
2019-05-21T05:36:40.000Z,13.30
2019-05-21T05:39:08.764Z,17.40
2019-05-21T05:41:37.276Z,18.47
2019-05-21T05:44:05.759Z,16.97
2019-05-21T05:46:34.259Z,19.70
2019-05-21T05:49:08.612Z,19.00
2019-05-21T05:51:37.101Z,14.30
2019-05-21T05:54:07.720Z,18.10
2019-05-21T05:56:35.769Z,18.87
2019-05-21T05:59:04.287Z,15.77
2019-05-21T06:01:33.846Z,14.53
2019-05-21T06:04:02.391Z,22.37
2019-05-21T06:06:31.195Z,22.07
2019-05-21T06:08:59.710Z,21.87
2019-05-21T06:11:28.191Z,21.83
2019-05-21T06:13:56.692Z,19.80
2019-05-21T06:16:25.179Z,18.60
2019-05-21T06:18:53.891Z,17.23
2019-05-21T06:21:22.366Z,16.77
2019-05-21T06:23:50.849Z,20.97
2019-05-21T06:26:19.875Z,15.73
2019-05-21T06:28:48.941Z,22.27
2019-05-21T06:31:17.746Z,17.27
2019-05-21T06:33:46.217Z,22.10
2019-05-21T06:36:14.705Z,17.93
2019-05-21T06:38:43.183Z,22.57
2019-05-21T06:41:11.944Z,21.87
2019-05-21T06:43:40.411Z,21.77
2019-05-21T06:46:08.880Z,18.80
2019-05-21T06:48:37.343Z,20.83
2019-05-21T06:51:05.845Z,20.53
2019-05-21T06:53:34.302Z,18.87
2019-05-21T06:56:06.948Z,19.37
2019-05-21T06:58:32.991Z,19.23
2019-05-21T07:01:01.780Z,20.70
2019-05-21T07:03:30.271Z,20.63
2019-05-21T07:05:59.612Z,20.13
2019-05-21T07:08:34.798Z,22.90
2019-05-21T07:10:58.412Z,21.70
2019-05-21T07:13:30.533Z,21.93
2019-05-21T07:15:57.133Z,19.27
2019-05-21T07:18:25.631Z,21.33
2019-05-21T07:20:54.153Z,21.13
2019-05-21T07:23:22.647Z,22.90
2019-05-21T07:25:51.120Z,20.07
2019-05-21T07:28:19.619Z,23.80
2019-05-21T07:30:48.431Z,17.60
2019-05-21T07:33:16.936Z,26.87
2019-05-21T07:35:45.436Z,19.07
2019-05-21T07:38:13.984Z,20.07
2019-05-21T07:40:42.518Z,24.37
2019-05-21T07:43:11.015Z,21.63
2019-05-21T07:45:39.503Z,24.17
2019-05-21T07:48:07.986Z,18.60
2019-05-21T07:50:36.438Z,18.03
2019-05-21T07:53:04.917Z,20.17
2019-05-21T07:55:33.508Z,24.97
2019-05-21T07:58:01.988Z,29.10
2019-05-21T08:00:30.505Z,23.77
2019-05-21T08:02:58.983Z,26.03
2019-05-21T08:05:27.483Z,23.60
2019-05-21T08:07:56.285Z,24.47
2019-05-21T08:10:24.787Z,30.37
2019-05-21T08:12:53.292Z,24.73
2019-05-21T08:15:21.867Z,20.37
2019-05-21T08:17:50.332Z,26.00
2019-05-21T08:20:18.931Z,27.27
2019-05-21T08:22:47.447Z,22.23
2019-05-21T08:25:15.916Z,26.97
2019-05-21T08:27:44.727Z,27.47
2019-05-21T08:30:13.567Z,23.43
2019-05-21T08:32:42.027Z,22.13
2019-05-21T08:35:10.540Z,27.03
2019-05-21T08:37:39.009Z,26.03
2019-05-21T08:40:07.848Z,30.50
2019-05-21T08:42:36.378Z,28.30
2019-05-21T08:45:05.726Z,24.23
2019-05-21T08:47:34.413Z,25.20
2019-05-21T08:50:02.966Z,24.73
2019-05-21T08:52:31.468Z,21.73
2019-05-21T08:54:59.924Z,25.30
2019-05-21T08:57:28.398Z,23.70
2019-05-21T08:59:57.093Z,25.97
2019-05-21T09:02:26.142Z,22.97
2019-05-21T09:04:54.633Z,21.87
2019-05-21T09:07:23.138Z,16.23
2019-05-21T09:09:52.235Z,21.10
2019-05-21T09:12:20.790Z,18.20
2019-05-21T09:14:49.306Z,18.87
2019-05-21T09:17:17.799Z,19.43
2019-05-21T09:19:46.559Z,18.33
2019-05-21T09:22:15.024Z,21.33
2019-05-21T09:24:43.734Z,17.17
2019-05-21T09:27:12.208Z,20.37
2019-05-21T09:29:40.686Z,19.83
2019-05-21T09:32:09.618Z,23.00
2019-05-21T09:34:48.266Z,20.43
2019-05-21T09:37:19.292Z,16.43
2019-05-21T09:39:38.753Z,21.40
2019-05-21T09:42:07.503Z,18.10
2019-05-21T09:44:36.002Z,16.50
2019-05-21T09:47:04.731Z,16.40
2019-05-21T09:49:33.214Z,17.50
2019-05-21T09:52:01.695Z,19.50
2019-05-21T09:54:30.195Z,21.97
2019-05-21T09:56:58.677Z,19.67
2019-05-21T09:59:58.672Z,15.70
2019-05-21T10:02:29.518Z,23.67
2019-05-21T10:04:58.289Z,16.80
2019-05-21T10:07:39.338Z,21.40
2019-05-21T10:09:57.084Z,20.80
2019-05-21T10:12:25.521Z,22.47
2019-05-21T10:14:54.023Z,16.57
2019-05-21T10:17:22.581Z,21.77
2019-05-21T10:19:51.058Z,19.87
2019-05-21T10:22:19.807Z,21.23
2019-05-21T10:24:48.272Z,21.53
2019-05-21T10:27:17.116Z,22.90
2019-05-21T10:29:45.588Z,21.77
2019-05-21T10:32:14.072Z,23.13
2019-05-21T10:34:42.577Z,22.43
2019-05-21T10:37:11.059Z,23.70
2019-05-21T10:39:39.559Z,23.27
2019-05-21T10:42:08.061Z,25.77
2019-05-21T10:44:36.566Z,24.37
2019-05-21T10:47:05.090Z,24.90
2019-05-21T10:49:33.848Z,26.57
2019-05-21T10:52:02.364Z,24.50
2019-05-21T10:54:30.863Z,21.77
2019-05-21T10:56:59.352Z,25.73
2019-05-21T10:59:27.835Z,24.37
2019-05-21T11:02:09.729Z,19.80
2019-05-21T11:04:48.386Z,24.50
2019-05-21T11:07:18.130Z,20.40
2019-05-21T11:09:46.621Z,22.50
2019-05-21T11:12:15.301Z,22.43
2019-05-21T11:14:43.765Z,25.10
2019-05-21T11:17:12.755Z,22.37
2019-05-21T11:19:41.353Z,23.63
2019-05-21T11:22:09.923Z,23.30
2019-05-21T11:24:38.411Z,27.50
2019-05-21T11:27:06.922Z,20.73
2019-05-21T11:29:35.408Z,26.20
2019-05-21T11:32:03.909Z,24.90
2019-05-21T11:34:32.688Z,21.67
2019-05-21T11:37:01.556Z,27.17
2019-05-21T11:39:29.996Z,26.07
2019-05-21T11:41:58.491Z,23.57
2019-05-21T11:44:26.977Z,28.13
2019-05-21T11:46:55.463Z,22.50
2019-05-21T11:49:23.957Z,22.47
2019-05-21T11:51:52.764Z,25.27
2019-05-21T11:54:21.236Z,23.43
2019-05-21T11:56:49.720Z,22.53
2019-05-21T11:59:18.528Z,22.97
2019-05-21T12:01:47.309Z,22.77
2019-05-21T12:04:15.810Z,20.67
2019-05-21T12:06:44.570Z,19.60
2019-05-21T12:09:13.377Z,21.17
2019-05-21T12:11:42.086Z,23.47
2019-05-21T12:14:10.587Z,22.73
2019-05-21T12:16:39.358Z,20.87
2019-05-21T12:19:08.595Z,22.57
2019-05-21T12:21:37.273Z,26.53
2019-05-21T12:24:05.991Z,20.20
2019-05-21T12:26:34.493Z,22.50
2019-05-21T12:29:03.033Z,22.30
2019-05-21T12:31:31.609Z,23.10
2019-05-21T12:34:00.092Z,24.33
2019-05-21T12:36:28.586Z,23.27
2019-05-21T12:39:12.721Z,24.97
2019-05-21T12:41:27.267Z,32.57
2019-05-21T12:43:55.799Z,26.30
2019-05-21T12:46:24.281Z,22.13
2019-05-21T12:48:52.764Z,22.37
2019-05-21T12:51:21.247Z,22.30
2019-05-21T12:53:49.749Z,23.10
2019-05-21T12:56:18.554Z,21.17
2019-05-21T12:58:47.013Z,24.87
2019-05-21T13:01:15.487Z,25.53
2019-05-21T13:03:43.984Z,24.07
2019-05-21T13:06:12.480Z,21.60
2019-05-21T13:08:41.065Z,23.03
2019-05-21T13:11:09.526Z,19.27
2019-05-21T13:13:38.005Z,21.63
2019-05-21T13:16:06.510Z,23.27
2019-05-21T13:18:35.000Z,23.90
2019-05-21T13:21:03.527Z,29.67
2019-05-21T13:23:32.046Z,20.37
2019-05-21T13:26:00.507Z,25.80
2019-05-21T13:28:28.981Z,25.87
2019-05-21T13:30:57.553Z,24.37
2019-05-21T13:33:26.048Z,21.80
2019-05-21T13:35:54.540Z,22.37
2019-05-21T13:38:24.390Z,27.60
2019-05-21T13:40:53.179Z,26.97
2019-05-21T13:43:21.690Z,25.67
2019-05-21T13:45:50.163Z,24.53
2019-05-21T13:48:18.623Z,27.43
2019-05-21T13:50:47.125Z,31.60
2019-05-21T13:53:15.662Z,25.63
2019-05-21T13:55:44.585Z,24.60
2019-05-21T13:58:13.052Z,29.80
2019-05-21T14:00:49.012Z,28.70
2019-05-21T14:03:17.550Z,30.33
2019-05-21T14:05:46.550Z,28.60
2019-05-21T14:08:15.033Z,30.87
2019-05-21T14:10:43.806Z,34.97
2019-05-21T14:13:12.311Z,34.83
2019-05-21T14:15:40.802Z,43.57
2019-05-21T14:18:09.322Z,35.83
2019-05-21T14:20:37.780Z,28.80
2019-05-21T14:23:06.255Z,32.57
2019-05-21T14:25:34.985Z,29.47
2019-05-21T14:28:03.791Z,30.40
2019-05-21T14:30:32.274Z,32.27
2019-05-21T14:33:00.737Z,31.10
2019-05-21T14:35:29.257Z,34.40
2019-05-21T14:37:58.123Z,31.37
2019-05-21T14:40:31.536Z,28.70
2019-05-21T14:43:00.380Z,37.00
2019-05-21T14:45:29.928Z,33.43
2019-05-21T14:47:57.723Z,34.80
2019-05-21T14:50:26.219Z,33.73
2019-05-21T14:52:54.743Z,35.73
2019-05-21T14:55:23.242Z,36.00
2019-05-21T14:57:51.741Z,38.10
2019-05-21T15:00:24.751Z,39.30
2019-05-21T15:02:53.266Z,39.40
2019-05-21T15:05:21.755Z,38.83
2019-05-21T15:07:50.249Z,31.17
2019-05-21T15:10:18.767Z,26.10
2019-05-21T15:12:47.265Z,35.47
2019-05-21T15:15:15.800Z,29.40
2019-05-21T15:17:44.283Z,31.03
2019-05-21T15:20:19.544Z,27.83
2019-05-21T15:22:48.024Z,24.07
2019-05-21T15:25:16.514Z,27.03
2019-05-21T15:27:44.988Z,23.90
2019-05-21T15:30:13.810Z,24.33
2019-05-21T15:32:42.454Z,25.67
2019-05-21T15:35:10.976Z,18.00
2019-05-21T15:37:39.792Z,19.50
2019-05-21T15:40:08.575Z,21.03
2019-05-21T15:42:37.340Z,21.63
2019-05-21T15:45:05.897Z,20.03
2019-05-21T15:47:34.914Z,21.83
2019-05-21T15:50:03.411Z,21.07
2019-05-21T15:52:31.892Z,16.43
2019-05-21T15:55:00.375Z,12.47
2019-05-21T15:57:29.182Z,13.60
2019-05-21T15:59:57.957Z,17.93
2019-05-21T16:02:26.413Z,13.07
2019-05-21T16:04:54.956Z,16.40
2019-05-21T16:07:23.458Z,15.90
2019-05-21T16:09:51.932Z,15.80
2019-05-21T16:12:21.151Z,14.43
2019-05-21T16:14:49.981Z,14.63
2019-05-21T16:17:18.487Z,15.80
2019-05-21T16:19:46.981Z,12.77
2019-05-21T16:22:15.445Z,12.20
2019-05-21T16:24:43.931Z,15.33
2019-05-21T16:27:12.388Z,14.23
2019-05-21T16:29:40.874Z,13.20
2019-05-21T16:32:09.417Z,12.30
2019-05-21T16:34:37.945Z,15.63
2019-05-21T16:37:06.461Z,14.70
2019-05-21T16:39:35.134Z,14.23
2019-05-21T16:42:03.707Z,15.97
2019-05-21T16:44:32.211Z,14.43
2019-05-21T16:47:00.963Z,15.00
2019-05-21T16:49:29.440Z,16.17
2019-05-21T16:51:58.182Z,14.30
2019-05-21T16:54:26.735Z,16.53
2019-05-21T16:56:55.173Z,19.57
2019-05-21T16:59:23.910Z,17.13
2019-05-21T17:01:52.420Z,19.53
2019-05-21T17:04:21.219Z,18.87
2019-05-21T17:06:50.016Z,15.37
2019-05-21T17:09:18.500Z,19.20
2019-05-21T17:11:58.914Z,24.07
2019-05-21T17:14:17.181Z,25.37
2019-05-21T17:16:45.685Z,20.50
2019-05-21T17:19:14.208Z,22.73
2019-05-21T17:21:42.661Z,25.47
2019-05-21T17:24:11.225Z,28.60
2019-05-21T17:26:42.803Z,29.50
2019-05-21T17:29:09.939Z,27.23
2019-05-21T17:31:38.407Z,30.77
2019-05-21T17:34:07.206Z,24.90
2019-05-21T17:36:35.968Z,26.60
2019-05-21T17:39:05.958Z,29.57
2019-05-21T17:41:34.674Z,33.03
2019-05-21T17:44:03.148Z,34.77
2019-05-21T17:46:31.933Z,37.07
2019-05-21T17:49:00.450Z,26.67
2019-05-21T17:51:28.938Z,24.40
2019-05-21T17:53:57.425Z,29.73
2019-05-21T17:56:25.901Z,29.40
2019-05-21T17:58:54.401Z,28.47
2019-05-21T18:01:22.867Z,24.40
2019-05-21T18:03:51.601Z,30.73
2019-05-21T18:06:20.184Z,28.60
2019-05-21T18:08:48.737Z,22.57
2019-05-21T18:11:18.028Z,28.80
2019-05-21T18:13:48.050Z,31.50
2019-05-21T18:16:16.669Z,28.87
2019-05-21T18:18:45.408Z,29.57
2019-05-21T18:21:13.951Z,29.80
2019-05-21T18:23:42.431Z,26.17
2019-05-21T18:26:11.218Z,29.10
2019-05-21T18:28:40.077Z,32.13
2019-05-21T18:31:08.650Z,30.70
2019-05-21T18:33:37.105Z,35.63
2019-05-21T18:36:05.586Z,31.57
2019-05-21T18:38:34.120Z,34.57
2019-05-21T18:41:02.713Z,24.23
2019-05-21T18:43:31.194Z,24.70
2019-05-21T18:45:59.727Z,25.83
2019-05-21T18:48:28.475Z,26.20
2019-05-21T18:50:56.952Z,22.97
2019-05-21T18:53:25.448Z,22.23
2019-05-21T18:55:54.228Z,27.67
2019-05-21T18:58:25.178Z,22.03
2019-05-21T19:00:52.928Z,22.17
2019-05-21T19:03:25.143Z,26.67
2019-05-21T19:05:51.953Z,28.07
2019-05-21T19:08:20.739Z,28.53
2019-05-21T19:10:49.243Z,24.57
2019-05-21T19:13:18.100Z,30.60
2019-05-21T19:15:46.553Z,28.17
2019-05-21T19:18:15.356Z,34.40
2019-05-21T19:20:43.910Z,23.13
2019-05-21T19:23:12.862Z,28.23
2019-05-21T19:25:41.324Z,24.80
2019-05-21T19:28:09.836Z,26.70
2019-05-21T19:30:38.339Z,23.50
2019-05-21T19:33:06.936Z,26.03
2019-05-21T19:35:35.412Z,29.27
2019-05-21T19:38:03.896Z,26.27
2019-05-21T19:40:32.376Z,25.67
2019-05-21T19:43:00.885Z,27.47
2019-05-21T19:45:31.386Z,26.83
2019-05-21T19:47:59.656Z,23.67
2019-05-21T19:50:28.481Z,22.97
2019-05-21T19:52:57.071Z,19.80
2019-05-21T19:55:26.516Z,23.27
2019-05-21T19:57:55.319Z,25.97
2019-05-21T20:00:26.392Z,26.87
2019-05-21T20:02:54.872Z,22.20
2019-05-21T20:05:23.647Z,23.97
2019-05-21T20:07:52.211Z,19.27
2019-05-21T20:10:21.165Z,16.97
2019-05-21T20:12:49.676Z,25.43
2019-05-21T20:15:18.177Z,18.47
2019-05-21T20:17:50.805Z,20.30
2019-05-21T20:20:19.472Z,21.43
2019-05-21T20:22:48.201Z,24.83
2019-05-21T20:25:17.220Z,22.67
2019-05-21T20:27:45.711Z,21.53
2019-05-21T20:30:16.838Z,18.17
2019-05-21T20:32:46.335Z,22.33
2019-05-21T20:35:16.671Z,28.60
2019-05-21T20:37:46.801Z,24.03
2019-05-21T20:40:15.560Z,27.07
2019-05-21T20:42:44.612Z,20.93
2019-05-21T20:45:15.416Z,26.97
2019-05-21T20:47:45.105Z,24.40
2019-05-21T20:50:15.265Z,19.33
2019-05-21T20:52:43.807Z,21.60
2019-05-21T20:55:12.684Z,22.07
2019-05-21T20:57:41.159Z,19.03
2019-05-21T21:00:10.937Z,21.43
2019-05-21T21:02:40.545Z,21.27
2019-05-21T21:05:09.812Z,19.20
2019-05-21T21:07:39.398Z,17.73
2019-05-21T21:10:08.941Z,16.27
2019-05-21T21:12:38.407Z,18.00
2019-05-21T21:15:06.967Z,19.03
2019-05-21T21:17:35.925Z,16.50
2019-05-21T21:20:04.909Z,22.10
2019-05-21T21:22:33.436Z,21.37
2019-05-21T21:25:02.022Z,15.70
2019-05-21T21:27:30.549Z,17.53
2019-05-21T21:29:59.038Z,15.50
2019-05-21T21:32:27.574Z,18.50
2019-05-21T21:34:56.078Z,15.57
2019-05-21T21:37:25.006Z,19.40
2019-05-21T21:39:53.957Z,19.73
2019-05-21T21:42:22.520Z,19.13
2019-05-21T21:44:51.191Z,20.63
2019-05-21T21:47:20.339Z,17.10
2019-05-21T21:49:48.870Z,16.60
2019-05-21T21:52:18.138Z,20.67
2019-05-21T21:54:47.132Z,16.93
2019-05-21T21:57:15.608Z,23.03
2019-05-21T21:59:44.146Z,18.00
2019-05-21T22:02:19.969Z,22.03
2019-05-21T22:04:48.834Z,15.20
2019-05-21T22:07:17.656Z,22.57
2019-05-21T22:09:46.973Z,18.87
2019-05-21T22:12:17.465Z,16.43
2019-05-21T22:14:52.017Z,19.47
2019-05-21T22:17:19.365Z,21.83
2019-05-21T22:19:48.166Z,20.27
2019-05-21T22:22:17.118Z,13.73
2019-05-21T22:24:45.596Z,18.60
2019-05-21T22:27:14.426Z,14.27
2019-05-21T22:29:42.907Z,16.43
2019-05-21T22:32:11.388Z,20.20
2019-05-21T22:34:39.952Z,22.50
2019-05-21T22:37:11.911Z,18.87
2019-05-21T22:39:42.090Z,18.37
2019-05-21T22:42:10.967Z,20.53
2019-05-21T22:44:39.446Z,20.27
2019-05-21T22:47:08.347Z,17.47
2019-05-21T22:49:37.136Z,21.40
2019-05-21T22:52:05.697Z,17.80
2019-05-21T22:54:34.213Z,15.63
2019-05-21T22:57:02.686Z,15.10
2019-05-21T22:59:31.203Z,22.13
2019-05-21T23:02:01.601Z,16.77
2019-05-21T23:04:30.087Z,23.23
2019-05-21T23:06:58.589Z,19.40
2019-05-21T23:09:27.091Z,22.93
2019-05-21T23:11:55.596Z,21.10
2019-05-21T23:14:24.093Z,21.97
2019-05-21T23:16:52.557Z,26.20
2019-05-21T23:19:24.259Z,22.73
2019-05-21T23:21:52.557Z,20.07
2019-05-21T23:24:23.411Z,30.50
2019-05-21T23:26:52.448Z,19.83
2019-05-21T23:29:21.183Z,18.03
2019-05-21T23:31:49.902Z,24.77
2019-05-21T23:34:18.663Z,20.57
2019-05-21T23:36:49.063Z,19.63
2019-05-21T23:39:22.123Z,24.37
2019-05-21T23:41:51.095Z,24.27
2019-05-21T23:44:19.885Z,24.30
2019-05-21T23:46:48.374Z,18.87
2019-05-21T23:49:16.839Z,25.57
2019-05-21T23:51:45.344Z,23.53
2019-05-21T23:54:14.146Z,26.30
2019-05-21T23:56:42.665Z,24.67
2019-05-21T23:59:11.155Z,24.63
